sensor_id;sensor_type;location;lat;lon;timestamp;temperature;humidity
20091;DHT22;10205;49.678;6.560;2024-01-11T00:01:45;1.70;60.60
20091;DHT22;10205;49.678;6.560;2024-01-11T00:04:12;1.70;60.70
20091;DHT22;10205;49.678;6.560;2024-01-11T00:06:41;1.70;60.60
20091;DHT22;10205;49.678;6.560;2024-01-11T00:09:08;1.70;60.60
20091;DHT22;10205;49.678;6.560;2024-01-11T00:11:35;1.70;60.60
20091;DHT22;10205;49.678;6.560;2024-01-11T00:14:02;1.60;60.60
20091;DHT22;10205;49.678;6.560;2024-01-11T00:16:29;1.60;61.50
20091;DHT22;10205;49.678;6.560;2024-01-11T00:18:58;1.60;60.60
20091;DHT22;10205;49.678;6.560;2024-01-11T00:21:25;1.60;60.60
20091;DHT22;10205;49.678;6.560;2024-01-11T00:23:52;1.60;61.50
20091;DHT22;10205;49.678;6.560;2024-01-11T00:26:20;1.60;60.70
20091;DHT22;10205;49.678;6.560;2024-01-11T00:28:47;1.60;60.70
20091;DHT22;10205;49.678;6.560;2024-01-11T00:31:14;1.60;60.70
20091;DHT22;10205;49.678;6.560;2024-01-11T00:33:41;1.60;60.80
20091;DHT22;10205;49.678;6.560;2024-01-11T00:36:09;1.60;60.70
20091;DHT22;10205;49.678;6.560;2024-01-11T00:38:37;1.60;60.70
20091;DHT22;10205;49.678;6.560;2024-01-11T00:41:04;1.60;60.70
20091;DHT22;10205;49.678;6.560;2024-01-11T00:43:31;1.50;60.70
20091;DHT22;10205;49.678;6.560;2024-01-11T00:45:58;1.50;60.80
20091;DHT22;10205;49.678;6.560;2024-01-11T00:48:25;1.50;60.70
20091;DHT22;10205;49.678;6.560;2024-01-11T00:50:52;1.50;60.70
20091;DHT22;10205;49.678;6.560;2024-01-11T00:53:21;1.50;60.80
20091;DHT22;10205;49.678;6.560;2024-01-11T00:55:48;1.40;60.70
20091;DHT22;10205;49.678;6.560;2024-01-11T00:58:15;1.50;60.80
20091;DHT22;10205;49.678;6.560;2024-01-11T01:00:42;1.50;60.80
20091;DHT22;10205;49.678;6.560;2024-01-11T01:03:09;1.40;60.80
20091;DHT22;10205;49.678;6.560;2024-01-11T01:05:36;1.40;60.80
20091;DHT22;10205;49.678;6.560;2024-01-11T01:08:03;1.40;60.80
20091;DHT22;10205;49.678;6.560;2024-01-11T01:10:32;1.40;60.80
20091;DHT22;10205;49.678;6.560;2024-01-11T01:12:59;1.40;60.80
20091;DHT22;10205;49.678;6.560;2024-01-11T01:15:26;1.40;60.80
20091;DHT22;10205;49.678;6.560;2024-01-11T01:17:53;1.40;60.80
20091;DHT22;10205;49.678;6.560;2024-01-11T01:20:20;1.30;60.80
20091;DHT22;10205;49.678;6.560;2024-01-11T01:22:47;1.30;60.80
20091;DHT22;10205;49.678;6.560;2024-01-11T01:25:15;1.30;60.80
20091;DHT22;10205;49.678;6.560;2024-01-11T01:27:44;1.30;60.80
20091;DHT22;10205;49.678;6.560;2024-01-11T01:30:11;1.30;60.90
20091;DHT22;10205;49.678;6.560;2024-01-11T01:32:38;1.20;60.90
20091;DHT22;10205;49.678;6.560;2024-01-11T01:35:05;1.20;60.90
20091;DHT22;10205;49.678;6.560;2024-01-11T01:37:33;1.20;60.90
20091;DHT22;10205;49.678;6.560;2024-01-11T01:40:00;1.20;60.90
20091;DHT22;10205;49.678;6.560;2024-01-11T01:42:27;1.20;60.90
20091;DHT22;10205;49.678;6.560;2024-01-11T01:44:56;1.20;61.80
20091;DHT22;10205;49.678;6.560;2024-01-11T01:47:23;1.10;60.90
20091;DHT22;10205;49.678;6.560;2024-01-11T01:49:51;1.10;61.00
20091;DHT22;10205;49.678;6.560;2024-01-11T01:52:19;1.10;61.00
20091;DHT22;10205;49.678;6.560;2024-01-11T01:54:48;1.10;61.10
20091;DHT22;10205;49.678;6.560;2024-01-11T01:57:17;1.10;61.10
20091;DHT22;10205;49.678;6.560;2024-01-11T01:59:46;1.10;61.10
20091;DHT22;10205;49.678;6.560;2024-01-11T02:02:19;1.10;61.20
20091;DHT22;10205;49.678;6.560;2024-01-11T02:04:46;1.00;61.10
20091;DHT22;10205;49.678;6.560;2024-01-11T02:07:13;1.00;61.10
20091;DHT22;10205;49.678;6.560;2024-01-11T02:09:43;1.00;61.10
20091;DHT22;10205;49.678;6.560;2024-01-11T02:12:10;1.00;61.20
20091;DHT22;10205;49.678;6.560;2024-01-11T02:14:38;1.00;61.20
20091;DHT22;10205;49.678;6.560;2024-01-11T02:17:06;1.00;61.30
20091;DHT22;10205;49.678;6.560;2024-01-11T02:19:35;0.90;61.20
20091;DHT22;10205;49.678;6.560;2024-01-11T02:22:07;0.90;61.30
20091;DHT22;10205;49.678;6.560;2024-01-11T02:24:48;0.90;61.30
20091;DHT22;10205;49.678;6.560;2024-01-11T02:27:15;0.90;61.20
20091;DHT22;10205;49.678;6.560;2024-01-11T02:29:42;0.90;61.20
20091;DHT22;10205;49.678;6.560;2024-01-11T02:32:09;0.90;61.30
20091;DHT22;10205;49.678;6.560;2024-01-11T02:34:37;0.90;61.30
20091;DHT22;10205;49.678;6.560;2024-01-11T02:37:05;0.80;61.30
20091;DHT22;10205;49.678;6.560;2024-01-11T02:39:33;0.80;61.30
20091;DHT22;10205;49.678;6.560;2024-01-11T02:42:01;0.80;62.20
20091;DHT22;10205;49.678;6.560;2024-01-11T02:44:29;0.80;61.30
20091;DHT22;10205;49.678;6.560;2024-01-11T02:46:56;0.80;61.40
20091;DHT22;10205;49.678;6.560;2024-01-11T02:49:23;0.80;61.40
20091;DHT22;10205;49.678;6.560;2024-01-11T02:51:50;0.70;61.40
20091;DHT22;10205;49.678;6.560;2024-01-11T02:54:17;0.70;61.40
20091;DHT22;10205;49.678;6.560;2024-01-11T02:56:44;0.70;61.40
20091;DHT22;10205;49.678;6.560;2024-01-11T02:59:12;0.70;61.40
20091;DHT22;10205;49.678;6.560;2024-01-11T03:01:39;0.70;61.40
20091;DHT22;10205;49.678;6.560;2024-01-11T03:04:07;0.60;61.30
20091;DHT22;10205;49.678;6.560;2024-01-11T03:06:34;0.70;61.40
20091;DHT22;10205;49.678;6.560;2024-01-11T03:09:01;0.60;61.40
20091;DHT22;10205;49.678;6.560;2024-01-11T03:11:29;0.60;61.40
20091;DHT22;10205;49.678;6.560;2024-01-11T03:13:56;0.60;61.50
20091;DHT22;10205;49.678;6.560;2024-01-11T03:16:24;0.60;61.50
20091;DHT22;10205;49.678;6.560;2024-01-11T03:18:51;0.60;61.50
20091;DHT22;10205;49.678;6.560;2024-01-11T03:21:18;0.60;61.50
20091;DHT22;10205;49.678;6.560;2024-01-11T03:23:45;0.50;61.50
20091;DHT22;10205;49.678;6.560;2024-01-11T03:26:13;0.50;61.40
20091;DHT22;10205;49.678;6.560;2024-01-11T03:28:41;0.50;61.50
20091;DHT22;10205;49.678;6.560;2024-01-11T03:31:08;0.50;61.50
20091;DHT22;10205;49.678;6.560;2024-01-11T03:33:37;0.40;61.50
20091;DHT22;10205;49.678;6.560;2024-01-11T03:36:08;0.40;61.50
20091;DHT22;10205;49.678;6.560;2024-01-11T03:38:36;0.40;61.50
20091;DHT22;10205;49.678;6.560;2024-01-11T03:41:08;0.40;61.50
20091;DHT22;10205;49.678;6.560;2024-01-11T03:43:36;0.30;62.40
20091;DHT22;10205;49.678;6.560;2024-01-11T03:46:03;0.30;61.60
20091;DHT22;10205;49.678;6.560;2024-01-11T03:48:30;0.20;61.60
20091;DHT22;10205;49.678;6.560;2024-01-11T03:50:59;0.20;61.70
20091;DHT22;10205;49.678;6.560;2024-01-11T03:53:26;0.20;61.90
20091;DHT22;10205;49.678;6.560;2024-01-11T03:55:53;0.20;61.90
20091;DHT22;10205;49.678;6.560;2024-01-11T03:58:20;0.10;61.90
20091;DHT22;10205;49.678;6.560;2024-01-11T04:00:48;0.10;61.90
20091;DHT22;10205;49.678;6.560;2024-01-11T04:03:15;0.10;61.90
20091;DHT22;10205;49.678;6.560;2024-01-11T04:05:42;0.10;62.00
20091;DHT22;10205;49.678;6.560;2024-01-11T04:08:11;0.10;62.10
20091;DHT22;10205;49.678;6.560;2024-01-11T04:10:38;0.10;62.10
20091;DHT22;10205;49.678;6.560;2024-01-11T04:13:07;0.10;62.20
20091;DHT22;10205;49.678;6.560;2024-01-11T04:15:34;0.00;62.20
20091;DHT22;10205;49.678;6.560;2024-01-11T04:18:01;0.00;62.20
20091;DHT22;10205;49.678;6.560;2024-01-11T04:20:28;0.00;62.20
20091;DHT22;10205;49.678;6.560;2024-01-11T04:22:55;0.00;62.20
20091;DHT22;10205;49.678;6.560;2024-01-11T04:25:24;0.00;62.20
20091;DHT22;10205;49.678;6.560;2024-01-11T04:27:51;0.00;62.30
20091;DHT22;10205;49.678;6.560;2024-01-11T04:30:18;0.00;62.30
20091;DHT22;10205;49.678;6.560;2024-01-11T04:32:45;0.00;62.40
20091;DHT22;10205;49.678;6.560;2024-01-11T04:35:12;0.00;62.50
20091;DHT22;10205;49.678;6.560;2024-01-11T04:37:39;0.00;63.20
20091;DHT22;10205;49.678;6.560;2024-01-11T04:40:07;0.00;62.30
20091;DHT22;10205;49.678;6.560;2024-01-11T04:42:36;0.00;62.30
20091;DHT22;10205;49.678;6.560;2024-01-11T04:45:04;0.00;62.20
20091;DHT22;10205;49.678;6.560;2024-01-11T04:47:31;-0.10;62.20
20091;DHT22;10205;49.678;6.560;2024-01-11T04:49:58;-0.10;62.30
20091;DHT22;10205;49.678;6.560;2024-01-11T04:52:26;-0.10;62.40
20091;DHT22;10205;49.678;6.560;2024-01-11T04:54:53;-0.20;62.50
20091;DHT22;10205;49.678;6.560;2024-01-11T04:57:20;-0.20;63.30
20091;DHT22;10205;49.678;6.560;2024-01-11T04:59:48;-0.20;62.60
20091;DHT22;10205;49.678;6.560;2024-01-11T05:02:15;-0.20;62.60
20091;DHT22;10205;49.678;6.560;2024-01-11T05:04:42;-0.20;62.60
20091;DHT22;10205;49.678;6.560;2024-01-11T05:07:10;-0.20;62.60
20091;DHT22;10205;49.678;6.560;2024-01-11T05:09:37;-0.20;62.70
20091;DHT22;10205;49.678;6.560;2024-01-11T05:12:04;-0.20;62.70
20091;DHT22;10205;49.678;6.560;2024-01-11T05:14:32;-0.20;62.70
20091;DHT22;10205;49.678;6.560;2024-01-11T05:17:00;-0.20;62.70
20091;DHT22;10205;49.678;6.560;2024-01-11T05:19:27;-0.20;62.70
20091;DHT22;10205;49.678;6.560;2024-01-11T05:21:55;-0.20;62.70
20091;DHT22;10205;49.678;6.560;2024-01-11T05:24:22;-0.30;63.40
20091;DHT22;10205;49.678;6.560;2024-01-11T05:26:49;-0.20;62.60
20091;DHT22;10205;49.678;6.560;2024-01-11T05:29:16;-0.30;62.60
20091;DHT22;10205;49.678;6.560;2024-01-11T05:31:43;-0.30;62.60
20091;DHT22;10205;49.678;6.560;2024-01-11T05:34:12;-0.30;62.60
20091;DHT22;10205;49.678;6.560;2024-01-11T05:36:39;-0.30;62.70
20091;DHT22;10205;49.678;6.560;2024-01-11T05:39:06;-0.30;62.60
20091;DHT22;10205;49.678;6.560;2024-01-11T05:41:34;-0.30;62.60
20091;DHT22;10205;49.678;6.560;2024-01-11T05:44:01;-0.30;62.60
20091;DHT22;10205;49.678;6.560;2024-01-11T05:46:28;-0.30;62.60
20091;DHT22;10205;49.678;6.560;2024-01-11T05:48:55;-0.30;62.60
20091;DHT22;10205;49.678;6.560;2024-01-11T05:51:23;-0.30;62.70
20091;DHT22;10205;49.678;6.560;2024-01-11T05:53:50;-0.30;62.70
20091;DHT22;10205;49.678;6.560;2024-01-11T05:56:19;-0.30;62.70
20091;DHT22;10205;49.678;6.560;2024-01-11T05:58:46;-0.40;62.60
20091;DHT22;10205;49.678;6.560;2024-01-11T06:01:14;-0.40;62.60
20091;DHT22;10205;49.678;6.560;2024-01-11T06:03:41;-0.40;62.60
20091;DHT22;10205;49.678;6.560;2024-01-11T06:06:08;-0.40;62.60
20091;DHT22;10205;49.678;6.560;2024-01-11T06:08:36;-0.40;62.60
20091;DHT22;10205;49.678;6.560;2024-01-11T06:11:03;-0.40;62.70
20091;DHT22;10205;49.678;6.560;2024-01-11T06:13:33;-0.40;62.70
20091;DHT22;10205;49.678;6.560;2024-01-11T06:16:00;-0.40;62.70
20091;DHT22;10205;49.678;6.560;2024-01-11T06:18:27;-0.40;62.70
20091;DHT22;10205;49.678;6.560;2024-01-11T06:20:54;-0.40;62.80
20091;DHT22;10205;49.678;6.560;2024-01-11T06:23:22;-0.50;62.70
20091;DHT22;10205;49.678;6.560;2024-01-11T06:25:52;-0.50;62.70
20091;DHT22;10205;49.678;6.560;2024-01-11T06:28:19;-0.50;62.80
20091;DHT22;10205;49.678;6.560;2024-01-11T06:30:46;-0.40;62.80
20091;DHT22;10205;49.678;6.560;2024-01-11T06:33:13;-0.50;62.70
20091;DHT22;10205;49.678;6.560;2024-01-11T06:35:40;-0.50;62.80
20091;DHT22;10205;49.678;6.560;2024-01-11T06:38:07;-0.50;62.80
20091;DHT22;10205;49.678;6.560;2024-01-11T06:40:34;-0.50;62.80
20091;DHT22;10205;49.678;6.560;2024-01-11T06:43:03;-0.50;62.80
20091;DHT22;10205;49.678;6.560;2024-01-11T06:45:32;-0.60;62.80
20091;DHT22;10205;49.678;6.560;2024-01-11T06:47:59;-0.60;62.80
20091;DHT22;10205;49.678;6.560;2024-01-11T06:50:26;-0.60;62.80
20091;DHT22;10205;49.678;6.560;2024-01-11T06:52:54;-0.60;62.80
20091;DHT22;10205;49.678;6.560;2024-01-11T06:55:21;-0.60;62.90
20091;DHT22;10205;49.678;6.560;2024-01-11T06:57:48;-0.60;62.90
20091;DHT22;10205;49.678;6.560;2024-01-11T07:00:17;-0.60;63.20
20091;DHT22;10205;49.678;6.560;2024-01-11T07:02:44;-0.60;63.00
20091;DHT22;10205;49.678;6.560;2024-01-11T07:05:12;-0.70;63.70
20091;DHT22;10205;49.678;6.560;2024-01-11T07:07:39;-0.70;63.00
20091;DHT22;10205;49.678;6.560;2024-01-11T07:10:07;-0.70;62.90
20091;DHT22;10205;49.678;6.560;2024-01-11T07:12:34;-0.70;63.00
20091;DHT22;10205;49.678;6.560;2024-01-11T07:15:03;-0.70;63.00
20091;DHT22;10205;49.678;6.560;2024-01-11T07:17:33;-0.70;63.10
20091;DHT22;10205;49.678;6.560;2024-01-11T07:20:01;-0.80;63.20
20091;DHT22;10205;49.678;6.560;2024-01-11T07:22:29;-0.80;63.20
20091;DHT22;10205;49.678;6.560;2024-01-11T07:24:57;-0.80;63.30
20091;DHT22;10205;49.678;6.560;2024-01-11T07:27:24;-0.80;63.40
20091;DHT22;10205;49.678;6.560;2024-01-11T07:29:51;-0.80;63.40
20091;DHT22;10205;49.678;6.560;2024-01-11T07:32:18;-0.90;63.40
20091;DHT22;10205;49.678;6.560;2024-01-11T07:34:46;-0.90;63.50
20091;DHT22;10205;49.678;6.560;2024-01-11T07:37:14;-0.90;63.50
20091;DHT22;10205;49.678;6.560;2024-01-11T07:39:41;-0.90;63.50
20091;DHT22;10205;49.678;6.560;2024-01-11T07:42:08;-1.00;63.50
20091;DHT22;10205;49.678;6.560;2024-01-11T07:44:35;-1.00;63.50
20091;DHT22;10205;49.678;6.560;2024-01-11T07:47:02;-1.00;63.60
20091;DHT22;10205;49.678;6.560;2024-01-11T07:49:30;-1.00;63.80
20091;DHT22;10205;49.678;6.560;2024-01-11T07:51:58;-1.00;63.80
20091;DHT22;10205;49.678;6.560;2024-01-11T07:54:25;-1.10;63.90
20091;DHT22;10205;49.678;6.560;2024-01-11T07:56:53;-1.10;64.00
20091;DHT22;10205;49.678;6.560;2024-01-11T07:59:20;-1.10;64.00
20091;DHT22;10205;49.678;6.560;2024-01-11T08:01:47;-1.10;64.10
20091;DHT22;10205;49.678;6.560;2024-01-11T08:04:15;-1.10;64.20
20091;DHT22;10205;49.678;6.560;2024-01-11T08:06:42;-1.10;64.20
20091;DHT22;10205;49.678;6.560;2024-01-11T08:09:11;-1.10;64.30
20091;DHT22;10205;49.678;6.560;2024-01-11T08:11:38;-1.10;64.50
20091;DHT22;10205;49.678;6.560;2024-01-11T08:14:06;-1.10;64.50
20091;DHT22;10205;49.678;6.560;2024-01-11T08:16:34;-1.10;64.60
20091;DHT22;10205;49.678;6.560;2024-01-11T08:19:01;-1.10;64.60
20091;DHT22;10205;49.678;6.560;2024-01-11T08:21:28;-1.10;64.50
20091;DHT22;10205;49.678;6.560;2024-01-11T08:23:55;-1.10;64.60
20091;DHT22;10205;49.678;6.560;2024-01-11T08:26:24;-1.10;64.60
20091;DHT22;10205;49.678;6.560;2024-01-11T08:28:51;-1.10;64.60
20091;DHT22;10205;49.678;6.560;2024-01-11T08:31:19;-1.10;64.60
20091;DHT22;10205;49.678;6.560;2024-01-11T08:33:46;-1.10;64.70
20091;DHT22;10205;49.678;6.560;2024-01-11T08:36:14;-1.10;64.70
20091;DHT22;10205;49.678;6.560;2024-01-11T08:38:41;-1.10;64.80
20091;DHT22;10205;49.678;6.560;2024-01-11T08:41:08;-1.10;64.80
20091;DHT22;10205;49.678;6.560;2024-01-11T08:43:36;-1.10;64.90
20091;DHT22;10205;49.678;6.560;2024-01-11T08:46:04;-1.10;64.90
20091;DHT22;10205;49.678;6.560;2024-01-11T08:48:31;-1.00;64.90
20091;DHT22;10205;49.678;6.560;2024-01-11T08:50:58;-1.10;64.90
20091;DHT22;10205;49.678;6.560;2024-01-11T08:53:26;-1.00;65.00
20091;DHT22;10205;49.678;6.560;2024-01-11T08:55:53;-1.00;65.00
20091;DHT22;10205;49.678;6.560;2024-01-11T08:58:20;-1.00;65.00
20091;DHT22;10205;49.678;6.560;2024-01-11T09:00:49;-1.00;65.20
20091;DHT22;10205;49.678;6.560;2024-01-11T09:03:16;-1.00;65.00
20091;DHT22;10205;49.678;6.560;2024-01-11T09:05:43;-0.90;65.00
20091;DHT22;10205;49.678;6.560;2024-01-11T09:08:10;-0.90;65.00
20091;DHT22;10205;49.678;6.560;2024-01-11T09:10:37;-0.80;65.00
20091;DHT22;10205;49.678;6.560;2024-01-11T09:13:04;-0.90;65.70
20091;DHT22;10205;49.678;6.560;2024-01-11T09:15:31;-0.80;64.90
20091;DHT22;10205;49.678;6.560;2024-01-11T09:18:00;-0.80;64.90
20091;DHT22;10205;49.678;6.560;2024-01-11T09:20:28;-0.80;64.90
20091;DHT22;10205;49.678;6.560;2024-01-11T09:22:55;-0.70;64.90
20091;DHT22;10205;49.678;6.560;2024-01-11T09:25:22;-0.70;65.70
20091;DHT22;10205;49.678;6.560;2024-01-11T09:27:50;-0.70;64.90
20091;DHT22;10205;49.678;6.560;2024-01-11T09:30:17;-0.70;64.90
20091;DHT22;10205;49.678;6.560;2024-01-11T09:32:44;-0.60;64.90
20091;DHT22;10205;49.678;6.560;2024-01-11T09:35:13;-0.60;65.00
20091;DHT22;10205;49.678;6.560;2024-01-11T09:37:40;-0.50;65.00
20091;DHT22;10205;49.678;6.560;2024-01-11T09:40:08;-0.50;64.90
20091;DHT22;10205;49.678;6.560;2024-01-11T09:42:37;-0.50;64.90
20091;DHT22;10205;49.678;6.560;2024-01-11T09:45:08;-0.40;64.90
20091;DHT22;10205;49.678;6.560;2024-01-11T09:47:38;-0.40;64.80
20091;DHT22;10205;49.678;6.560;2024-01-11T09:50:07;-0.30;64.80
20091;DHT22;10205;49.678;6.560;2024-01-11T09:52:37;-0.30;64.80
20091;DHT22;10205;49.678;6.560;2024-01-11T09:55:06;-0.30;64.70
20091;DHT22;10205;49.678;6.560;2024-01-11T09:57:35;-0.20;64.80
20091;DHT22;10205;49.678;6.560;2024-01-11T10:00:08;-0.20;64.70
20091;DHT22;10205;49.678;6.560;2024-01-11T10:02:36;-0.10;64.70
20091;DHT22;10205;49.678;6.560;2024-01-11T10:05:04;-0.10;64.70
20091;DHT22;10205;49.678;6.560;2024-01-11T10:07:32;0.00;64.70
20091;DHT22;10205;49.678;6.560;2024-01-11T10:10:02;0.00;64.60
20091;DHT22;10205;49.678;6.560;2024-01-11T10:12:30;0.10;64.60
20091;DHT22;10205;49.678;6.560;2024-01-11T10:15:05;0.10;64.50
20091;DHT22;10205;49.678;6.560;2024-01-11T10:17:35;0.20;64.50
20091;DHT22;10205;49.678;6.560;2024-01-11T10:20:03;0.20;64.40
20091;DHT22;10205;49.678;6.560;2024-01-11T10:22:32;0.30;64.40
20091;DHT22;10205;49.678;6.560;2024-01-11T10:25:11;0.30;64.30
20091;DHT22;10205;49.678;6.560;2024-01-11T10:27:40;0.30;64.30
20091;DHT22;10205;49.678;6.560;2024-01-11T10:30:09;0.40;64.30
20091;DHT22;10205;49.678;6.560;2024-01-11T10:32:38;0.40;64.10
20091;DHT22;10205;49.678;6.560;2024-01-11T10:35:06;0.50;64.10
20091;DHT22;10205;49.678;6.560;2024-01-11T10:37:33;0.50;64.10
20091;DHT22;10205;49.678;6.560;2024-01-11T10:40:04;0.60;64.10
20091;DHT22;10205;49.678;6.560;2024-01-11T10:42:41;0.60;64.10
20091;DHT22;10205;49.678;6.560;2024-01-11T10:45:13;0.70;64.30
20091;DHT22;10205;49.678;6.560;2024-01-11T10:47:47;0.70;64.30
20091;DHT22;10205;49.678;6.560;2024-01-11T10:50:18;0.80;64.40
20091;DHT22;10205;49.678;6.560;2024-01-11T10:52:54;0.90;64.40
20091;DHT22;10205;49.678;6.560;2024-01-11T10:55:32;1.00;64.30
20091;DHT22;10205;49.678;6.560;2024-01-11T10:58:02;1.10;64.20
20091;DHT22;10205;49.678;6.560;2024-01-11T11:00:31;1.10;64.00
20091;DHT22;10205;49.678;6.560;2024-01-11T11:02:59;1.20;63.90
20091;DHT22;10205;49.678;6.560;2024-01-11T11:05:28;1.20;63.60
20091;DHT22;10205;49.678;6.560;2024-01-11T11:07:56;1.30;63.50
20091;DHT22;10205;49.678;6.560;2024-01-11T11:10:25;1.40;63.40
20091;DHT22;10205;49.678;6.560;2024-01-11T11:12:55;1.40;63.30
20091;DHT22;10205;49.678;6.560;2024-01-11T11:15:27;1.40;63.20
20091;DHT22;10205;49.678;6.560;2024-01-11T11:17:54;1.50;63.10
20091;DHT22;10205;49.678;6.560;2024-01-11T11:20:22;1.50;63.00
20091;DHT22;10205;49.678;6.560;2024-01-11T11:23:03;1.60;63.00
20091;DHT22;10205;49.678;6.560;2024-01-11T11:25:31;1.50;62.80
20091;DHT22;10205;49.678;6.560;2024-01-11T11:27:59;1.60;62.90
20091;DHT22;10205;49.678;6.560;2024-01-11T11:30:31;1.70;62.80
20091;DHT22;10205;49.678;6.560;2024-01-11T11:32:58;1.70;62.60
20091;DHT22;10205;49.678;6.560;2024-01-11T11:35:35;1.70;62.60
20091;DHT22;10205;49.678;6.560;2024-01-11T11:38:02;1.80;62.50
20091;DHT22;10205;49.678;6.560;2024-01-11T11:40:36;1.80;62.50
20091;DHT22;10205;49.678;6.560;2024-01-11T11:43:06;1.80;62.30
20091;DHT22;10205;49.678;6.560;2024-01-11T11:45:34;1.90;62.50
20091;DHT22;10205;49.678;6.560;2024-01-11T11:51:15;1.90;62.40
20091;DHT22;10205;49.678;6.560;2024-01-11T11:53:43;2.00;62.50
20091;DHT22;10205;49.678;6.560;2024-01-11T11:56:12;2.00;62.30
20091;DHT22;10205;49.678;6.560;2024-01-11T11:58:43;2.10;62.40
20091;DHT22;10205;49.678;6.560;2024-01-11T12:01:15;2.10;62.30
20091;DHT22;10205;49.678;6.560;2024-01-11T12:03:44;2.10;62.30
20091;DHT22;10205;49.678;6.560;2024-01-11T12:06:15;2.10;62.20
20091;DHT22;10205;49.678;6.560;2024-01-11T12:08:44;2.20;62.20
20091;DHT22;10205;49.678;6.560;2024-01-11T12:11:17;2.30;62.30
20091;DHT22;10205;49.678;6.560;2024-01-11T12:13:46;2.30;62.10
20091;DHT22;10205;49.678;6.560;2024-01-11T12:16:15;2.30;62.10
20091;DHT22;10205;49.678;6.560;2024-01-11T12:18:43;2.40;62.10
20091;DHT22;10205;49.678;6.560;2024-01-11T12:21:10;2.40;62.00
20091;DHT22;10205;49.678;6.560;2024-01-11T12:23:38;2.40;62.80
20091;DHT22;10205;49.678;6.560;2024-01-11T12:26:07;2.50;61.90
20091;DHT22;10205;49.678;6.560;2024-01-11T12:28:38;2.50;61.90
20091;DHT22;10205;49.678;6.560;2024-01-11T12:31:07;2.50;61.80
20091;DHT22;10205;49.678;6.560;2024-01-11T12:33:35;2.60;61.80
20091;DHT22;10205;49.678;6.560;2024-01-11T12:36:06;2.60;61.70
20091;DHT22;10205;49.678;6.560;2024-01-11T12:38:34;2.60;61.70
20091;DHT22;10205;49.678;6.560;2024-01-11T12:41:01;2.70;61.60
20091;DHT22;10205;49.678;6.560;2024-01-11T12:43:29;2.70;61.50
20091;DHT22;10205;49.678;6.560;2024-01-11T12:45:56;2.80;61.50
20091;DHT22;10205;49.678;6.560;2024-01-11T12:48:23;2.80;61.40
20091;DHT22;10205;49.678;6.560;2024-01-11T12:50:52;2.80;61.40
20091;DHT22;10205;49.678;6.560;2024-01-11T12:53:20;2.90;61.40
20091;DHT22;10205;49.678;6.560;2024-01-11T12:55:47;2.90;61.40
20091;DHT22;10205;49.678;6.560;2024-01-11T12:58:20;2.90;61.30
20091;DHT22;10205;49.678;6.560;2024-01-11T13:00:47;2.90;61.10
20091;DHT22;10205;49.678;6.560;2024-01-11T13:03:16;3.00;61.30
20091;DHT22;10205;49.678;6.560;2024-01-11T13:05:45;3.00;61.20
20091;DHT22;10205;49.678;6.560;2024-01-11T13:08:13;3.00;61.10
20091;DHT22;10205;49.678;6.560;2024-01-11T13:10:41;3.00;61.00
20091;DHT22;10205;49.678;6.560;2024-01-11T13:13:08;3.10;61.00
20091;DHT22;10205;49.678;6.560;2024-01-11T13:15:35;3.10;60.90
20091;DHT22;10205;49.678;6.560;2024-01-11T13:18:03;3.10;60.90
20091;DHT22;10205;49.678;6.560;2024-01-11T13:20:31;3.10;60.80
20091;DHT22;10205;49.678;6.560;2024-01-11T13:23:15;3.20;60.90
20091;DHT22;10205;49.678;6.560;2024-01-11T13:25:45;3.20;60.70
20091;DHT22;10205;49.678;6.560;2024-01-11T13:28:15;3.20;60.80
20091;DHT22;10205;49.678;6.560;2024-01-11T13:30:44;3.20;60.80
20091;DHT22;10205;49.678;6.560;2024-01-11T13:33:12;3.30;60.70
20091;DHT22;10205;49.678;6.560;2024-01-11T13:35:40;3.30;60.70
20091;DHT22;10205;49.678;6.560;2024-01-11T13:38:08;3.30;60.60
20091;DHT22;10205;49.678;6.560;2024-01-11T13:40:37;3.30;60.50
20091;DHT22;10205;49.678;6.560;2024-01-11T13:43:05;3.30;60.50
20091;DHT22;10205;49.678;6.560;2024-01-11T13:45:32;3.30;60.50
20091;DHT22;10205;49.678;6.560;2024-01-11T13:48:02;3.40;60.50
20091;DHT22;10205;49.678;6.560;2024-01-11T13:50:30;3.40;60.40
20091;DHT22;10205;49.678;6.560;2024-01-11T13:52:57;3.40;60.40
20091;DHT22;10205;49.678;6.560;2024-01-11T13:55:25;3.40;60.40
20091;DHT22;10205;49.678;6.560;2024-01-11T13:57:53;3.40;60.40
20091;DHT22;10205;49.678;6.560;2024-01-11T14:00:20;3.50;60.40
20091;DHT22;10205;49.678;6.560;2024-01-11T14:02:48;3.50;60.30
20091;DHT22;10205;49.678;6.560;2024-01-11T14:05:15;3.50;60.30
20091;DHT22;10205;49.678;6.560;2024-01-11T14:07:43;3.50;60.20
20091;DHT22;10205;49.678;6.560;2024-01-11T14:10:12;3.60;60.20
20091;DHT22;10205;49.678;6.560;2024-01-11T14:12:40;3.60;60.20
20091;DHT22;10205;49.678;6.560;2024-01-11T14:15:10;3.60;60.10
20091;DHT22;10205;49.678;6.560;2024-01-11T14:17:38;3.60;59.90
20091;DHT22;10205;49.678;6.560;2024-01-11T14:20:07;3.70;59.90
20091;DHT22;10205;49.678;6.560;2024-01-11T14:22:39;3.70;59.90
20091;DHT22;10205;49.678;6.560;2024-01-11T14:25:07;3.70;59.90
20091;DHT22;10205;49.678;6.560;2024-01-11T14:27:36;3.70;59.80
20091;DHT22;10205;49.678;6.560;2024-01-11T14:30:05;3.70;59.70
20091;DHT22;10205;49.678;6.560;2024-01-11T14:32:34;3.80;59.70
20091;DHT22;10205;49.678;6.560;2024-01-11T14:35:01;3.80;59.60
20091;DHT22;10205;49.678;6.560;2024-01-11T14:37:30;3.80;59.70
20091;DHT22;10205;49.678;6.560;2024-01-11T14:39:57;3.80;59.80
20091;DHT22;10205;49.678;6.560;2024-01-11T14:42:25;3.80;59.70
20091;DHT22;10205;49.678;6.560;2024-01-11T14:44:53;3.80;59.70
20091;DHT22;10205;49.678;6.560;2024-01-11T14:47:22;3.80;60.30
20091;DHT22;10205;49.678;6.560;2024-01-11T14:49:50;3.90;59.60
20091;DHT22;10205;49.678;6.560;2024-01-11T14:52:20;3.90;59.60
20091;DHT22;10205;49.678;6.560;2024-01-11T14:54:47;3.90;59.50
20091;DHT22;10205;49.678;6.560;2024-01-11T14:57:14;3.90;59.60
20091;DHT22;10205;49.678;6.560;2024-01-11T14:59:42;3.90;59.50
20091;DHT22;10205;49.678;6.560;2024-01-11T15:02:09;3.90;59.50
20091;DHT22;10205;49.678;6.560;2024-01-11T15:04:36;3.90;59.40
20091;DHT22;10205;49.678;6.560;2024-01-11T15:07:05;4.00;59.60
20091;DHT22;10205;49.678;6.560;2024-01-11T15:09:34;3.90;59.50
20091;DHT22;10205;49.678;6.560;2024-01-11T15:12:01;3.90;59.50
20091;DHT22;10205;49.678;6.560;2024-01-11T15:14:28;4.00;59.60
20091;DHT22;10205;49.678;6.560;2024-01-11T15:16:55;4.00;60.20
20091;DHT22;10205;49.678;6.560;2024-01-11T15:19:23;4.00;59.40
20091;DHT22;10205;49.678;6.560;2024-01-11T15:21:51;4.00;59.40
20091;DHT22;10205;49.678;6.560;2024-01-11T15:24:19;3.90;59.20
20091;DHT22;10205;49.678;6.560;2024-01-11T15:26:46;4.00;59.10
20091;DHT22;10205;49.678;6.560;2024-01-11T15:29:14;3.90;59.10
20091;DHT22;10205;49.678;6.560;2024-01-11T15:31:41;4.00;59.10
20091;DHT22;10205;49.678;6.560;2024-01-11T15:34:11;3.90;59.00
20091;DHT22;10205;49.678;6.560;2024-01-11T15:36:38;4.00;59.00
20091;DHT22;10205;49.678;6.560;2024-01-11T15:39:06;4.00;59.10
20091;DHT22;10205;49.678;6.560;2024-01-11T15:41:35;4.00;59.00
20091;DHT22;10205;49.678;6.560;2024-01-11T15:44:02;4.00;58.90
20091;DHT22;10205;49.678;6.560;2024-01-11T15:46:29;3.90;58.70
20091;DHT22;10205;49.678;6.560;2024-01-11T15:48:56;4.00;58.60